Time;durP1;ratioP1;P1;durP2;ratioP2;P2;SDS_P1;SDS_P2;PMS_P1;PMS_P2;Temp;Humidity;BMP_temperature;BMP_pressure;BME280_temperature;BME280_humidity;BME280_pressure;Samples;Min_cycle;Max_cycle;Signal;HPM_P1;HPM_P2
2022/06/13 00:01:58;;;;;;;3.45;2.40;;;;;;;20.23;100.00;-24379.84;5034372;28;20549;-65
2022/06/13 00:04:23;;;;;;;2.70;2.00;;;;;;;20.09;100.00;-24375.97;5033791;28;20179;-64
2022/06/13 00:06:49;;;;;;;2.60;2.15;;;;;;;19.93;100.00;-24371.50;5034177;28;20586;-61
2022/06/13 00:09:15;;;;;;;3.50;2.38;;;;;;;19.95;100.00;-24371.94;5034031;28;20665;-63
2022/06/13 00:11:41;;;;;;;3.45;2.40;;;;;;;19.98;100.00;-24372.75;5034621;28;20183;-63
2022/06/13 00:14:07;;;;;;;2.47;1.92;;;;;;;20.07;100.00;-24375.41;5033753;28;20262;-67
2022/06/13 00:16:33;;;;;;;2.85;2.05;;;;;;;20.05;100.00;-24374.84;5033868;28;20608;-62
2022/06/13 00:18:59;;;;;;;2.63;2.08;;;;;;;20.08;100.00;-24375.69;5034303;28;20202;-66
2022/06/13 00:21:31;;;;;;;2.40;2.10;;;;;;;19.78;100.00;-24367.34;5033737;28;20663;-64
2022/06/13 00:23:58;;;;;;;6.53;2.53;;;;;;;19.87;100.00;-24369.84;5033848;28;20211;-64
2022/06/13 00:26:26;;;;;;;3.22;2.40;;;;;;;19.96;100.00;-24372.34;5033322;28;20179;-63
2022/06/13 00:28:52;;;;;;;2.78;2.08;;;;;;;20.07;100.00;-24375.41;5034164;28;20179;-64
2022/06/13 00:31:17;;;;;;;3.65;2.17;;;;;;;20.10;100.00;-24376.25;5033454;28;20191;-65
2022/06/13 00:33:43;;;;;;;2.90;2.00;;;;;;;19.88;100.00;-24369.97;5034191;28;20580;-63
2022/06/13 00:36:09;;;;;;;2.95;2.28;;;;;;;19.76;100.00;-24366.94;5033552;28;20245;-64
2022/06/13 00:38:37;;;;;;;3.83;2.33;;;;;;;20.03;100.00;-24374.28;5048312;28;20628;-63
2022/06/13 00:41:17;;;;;;;3.30;2.10;;;;;;;20.09;100.00;-24375.81;5030487;28;20210;-66
2022/06/13 00:43:45;;;;;;;4.72;2.30;;;;;;;20.14;100.00;-24377.22;5033323;28;20190;-62
2022/06/13 00:46:19;;;;;;;3.17;2.40;;;;;;;19.92;100.00;-24371.09;5033068;28;20188;-64
2022/06/13 00:48:45;;;;;;;4.05;2.50;;;;;;;20.15;100.00;-24377.47;5033527;28;20674;-66
2022/06/13 00:51:10;;;;;;;3.50;2.15;;;;;;;19.78;100.00;-24367.34;5033225;28;20180;-65
2022/06/13 00:53:37;;;;;;;3.42;2.42;;;;;;;20.01;100.00;-24373.72;5032347;28;20176;-65
2022/06/13 00:56:11;;;;;;;7.50;2.95;;;;;;;20.00;100.00;-24373.47;5029660;28;20179;-66
2022/06/13 00:58:45;;;;;;;3.90;2.58;;;;;;;19.91;100.00;-24370.97;5032877;28;20241;-65
2022/06/13 01:01:12;;;;;;;3.10;2.35;;;;;;;19.85;100.00;-24369.44;5030024;28;20183;-64
2022/06/13 01:03:37;;;;;;;2.88;2.20;;;;;;;19.79;100.00;-24367.75;5032564;28;20350;-66
2022/06/13 01:06:05;;;;;;;4.03;2.47;;;;;;;19.88;100.00;-24369.97;5032038;28;20703;-64
2022/06/13 01:08:34;;;;;;;2.80;2.17;;;;;;;20.13;100.00;-24376.94;5064556;28;20322;-63
2022/06/13 01:11:18;;;;;;;2.75;2.15;;;;;;;20.00;100.00;-24373.31;5032809;28;20199;-62
2022/06/13 01:14:13;;;;;;;2.67;2.05;;;;;;;19.89;100.00;-24370.41;5032217;28;20195;-66
2022/06/13 01:16:56;;;;;;;2.80;1.90;;;;;;;20.22;100.00;-24379.56;5031600;28;20180;-64
2022/06/13 01:20:01;;;;;;;3.47;2.28;;;;;;;19.76;100.00;-24366.78;5031900;28;20270;-64
2022/06/13 01:22:51;;;;;;;5.13;2.20;;;;;;;20.15;100.00;-24377.63;5031588;28;20233;-64
2022/06/13 01:25:57;;;;;;;3.28;2.10;;;;;;;20.22;100.00;-24379.44;5028862;28;20221;-67
2022/06/13 01:28:22;;;;;;;2.58;2.05;;;;;;;20.23;100.00;-24379.84;5031335;28;20189;-67
2022/06/13 01:30:56;;;;;;;3.85;2.30;;;;;;;20.21;100.00;-24379.28;5032705;28;20179;-63
2022/06/13 01:33:27;;;;;;;3.65;2.50;;;;;;;20.21;100.00;-24379.28;5032649;28;20172;-62
2022/06/13 01:36:11;;;;;;;5.10;2.55;;;;;;;20.25;100.00;-24380.41;5032537;28;20241;-67
2022/06/13 01:39:08;;;;;;;2.83;2.13;;;;;;;19.87;100.00;-24369.72;5032684;28;20527;-63
2022/06/13 01:41:59;;;;;;;3.00;2.33;;;;;;;20.16;100.00;-24377.91;5032689;28;20238;-66
2022/06/13 01:44:35;;;;;;;3.38;2.47;;;;;;;20.19;100.00;-24378.59;5021659;28;20210;-66
2022/06/13 01:47:30;;;;;;;2.30;1.90;;;;;;;20.23;100.00;-24379.84;5032307;28;20230;-65
2022/06/13 01:49:58;;;;;;;2.78;1.95;;;;;;;20.25;100.00;-24380.25;5032562;28;20175;-64
2022/06/13 01:52:37;;;;;;;2.33;1.98;;;;;;;20.22;100.00;-24379.56;5031890;28;20183;-63
2022/06/13 01:55:08;;;;;;;2.83;2.10;;;;;;;20.25;100.00;-24380.25;5028894;28;20186;-64
2022/06/13 01:57:37;;;;;;;2.97;2.25;;;;;;;20.07;100.00;-24375.25;5032030;28;20203;-65
2022/06/13 02:00:06;;;;;;;3.83;2.38;;;;;;;19.94;100.00;-24371.78;5028648;28;20179;-65
2022/06/13 02:02:45;;;;;;;2.95;2.22;;;;;;;20.29;100.00;-24381.38;5031706;28;20183;-66
2022/06/13 02:05:14;;;;;;;3.08;2.38;;;;;;;20.16;100.00;-24377.75;5029054;28;20219;-66
2022/06/13 02:07:46;;;;;;;2.92;2.08;;;;;;;20.09;100.00;-24375.81;5031275;28;20186;-63
2022/06/13 02:10:20;;;;;;;8.88;2.28;;;;;;;19.91;100.00;-24370.97;5031454;28;20288;-63
2022/06/13 02:12:51;;;;;;;2.75;2.08;;;;;;;19.90;100.00;-24370.53;5031990;28;20183;-66
2022/06/13 02:15:25;;;;;;;3.10;2.22;;;;;;;19.61;100.00;-24362.63;5031472;28;20189;-65
2022/06/13 02:17:59;;;;;;;2.95;2.25;;;;;;;19.83;100.00;-24368.88;5029450;28;20301;-66
2022/06/13 02:20:31;;;;;;;3.25;2.20;;;;;;;19.38;100.00;-24356.34;5031465;28;20191;-65
2022/06/13 02:23:01;;;;;;;3.50;2.25;;;;;;;19.56;100.00;-24361.22;5031781;28;20775;-63
2022/06/13 02:25:31;;;;;;;3.05;2.53;;;;;;;19.58;100.00;-24361.78;5031119;28;20185;-66
2022/06/13 02:28:06;;;;;;;2.72;2.10;;;;;;;19.60;100.00;-24362.47;5031655;28;20187;-64
2022/06/13 02:30:37;;;;;;;3.42;2.38;;;;;;;19.26;100.00;-24353.00;5031065;28;20225;-65
2022/06/13 02:33:58;;;;;;;3.17;2.30;;;;;;;19.47;100.00;-24358.72;5027390;28;20179;-67
2022/06/13 02:36:32;;;;;;;3.60;2.33;;;;;;;19.24;100.00;-24352.59;5028851;28;20199;-63
2022/06/13 02:39:04;;;;;;;2.22;1.98;;;;;;;19.13;100.00;-24349.53;5032229;28;20217;-63
2022/06/13 02:41:39;;;;;;;2.80;2.13;;;;;;;19.18;100.00;-24350.78;5031195;28;20562;-63
2022/06/13 02:44:18;;;;;;;3.95;2.47;;;;;;;18.64;100.00;-24335.91;5028057;28;20178;-63
2022/06/13 02:46:48;;;;;;;2.55;2.13;;;;;;;18.74;100.00;-24338.69;5030815;28;20222;-64
2022/06/13 02:49:22;;;;;;;5.47;2.50;;;;;;;18.92;100.00;-24343.84;5030640;28;20558;-66
2022/06/13 02:52:36;;;;;;;3.35;2.33;;;;;;;18.87;100.00;-24342.31;5029684;28;20573;-67
2022/06/13 02:55:07;;;;;;;3.75;2.30;;;;;;;18.87;100.00;-24342.31;5018512;28;20670;-64
2022/06/13 02:57:54;;;;;;;2.42;2.10;;;;;;;19.03;100.00;-24346.75;5031719;28;20203;-67
2022/06/13 03:00:44;;;;;;;3.60;2.25;;;;;;;19.01;100.00;-24346.06;5031647;28;20631;-66
2022/06/13 03:03:15;;;;;;;3.42;2.45;;;;;;;18.97;100.00;-24345.09;5028574;28;20266;-66
2022/06/13 03:05:59;;;;;;;3.38;2.15;;;;;;;19.01;100.00;-24346.19;5030121;28;20179;-65
2022/06/13 03:08:41;;;;;;;2.85;2.38;;;;;;;18.97;100.00;-24345.09;5030518;28;20546;-63
2022/06/13 03:11:29;;;;;;;3.97;2.30;;;;;;;19.00;100.00;-24345.78;5026306;28;20194;-65
2022/06/13 03:14:01;;;;;;;4.78;2.40;;;;;;;18.83;100.00;-24341.31;5030025;28;20190;-67
2022/06/13 03:16:32;;;;;;;3.88;2.20;;;;;;;18.51;100.00;-24332.56;5031004;28;20194;-66
2022/06/13 03:19:36;;;;;;;2.90;2.20;;;;;;;18.83;100.00;-24341.31;5030485;28;20298;-64
2022/06/13 03:22:18;;;;;;;3.13;2.03;;;;;;;18.72;100.00;-24338.13;5027108;28;20186;-66
2022/06/13 03:24:43;;;;;;;2.63;2.15;;;;;;;18.90;100.00;-24343.13;5023790;28;20182;-65
2022/06/13 03:27:38;;;;;;;3.40;2.45;;;;;;;18.93;100.00;-24343.97;5024429;28;20575;-65
2022/06/13 03:30:14;;;;;;;3.17;2.67;;;;;;;19.09;100.00;-24348.44;5024308;28;20620;-63
2022/06/13 03:35:50;;;;;;;3.33;2.17;;;;;;;19.88;100.00;-24370.13;5025143;28;20193;-61
2022/06/13 03:38:23;;;;;;;3.78;2.60;;;;;;;20.10;100.00;-24376.09;5022488;28;20199;-61
2022/06/13 03:40:54;;;;;;;3.20;2.28;;;;;;;19.90;100.00;-24370.53;5024093;28;20179;-60
2022/06/13 03:43:29;;;;;;;3.08;2.38;;;;;;;19.98;100.00;-24372.75;5023435;28;20237;-62
2022/06/13 03:46:03;;;;;;;3.97;2.47;;;;;;;19.90;100.00;-24370.53;5024517;28;20185;-61
2022/06/13 03:48:35;;;;;;;2.95;2.40;;;;;;;19.81;100.00;-24368.31;5024290;28;20234;-65
2022/06/13 03:51:16;;;;;;;3.33;2.38;;;;;;;20.29;100.00;-24381.50;5024441;28;20570;-62
2022/06/13 03:53:49;;;;;;;5.43;3.00;;;;;;;20.51;100.00;-24387.34;5025724;28;20295;-65
2022/06/13 03:56:26;;;;;;;3.10;2.40;;;;;;;21.26;100.00;-24407.88;5028910;28;20566;-63
2022/06/13 03:59:09;;;;;;;4.38;3.00;;;;;;;22.89;100.00;-24452.72;5026571;28;20210;-63
2022/06/13 04:01:48;;;;;;;4.45;3.05;;;;;;;24.12;100.00;-24486.16;5028450;28;20653;-65
2022/06/13 04:04:26;;;;;;;6.03;3.15;;;;;;;25.36;100.00;-24519.91;5026770;28;20177;-66
2022/06/13 04:06:54;;;;;;;4.05;2.65;;;;;;;24.44;100.00;-24494.97;5028585;28;20646;-67
2022/06/13 04:09:24;;;;;;;4.22;2.58;;;;;;;25.63;100.00;-24527.19;5028620;28;20183;-65
2022/06/13 04:11:53;;;;;;;5.35;1.90;;;;;;;25.29;100.00;-24517.97;5029078;28;20237;-68
2022/06/13 04:14:52;;;;;;;5.07;2.50;;;;;;;24.33;100.00;-24491.81;5029019;28;20263;-67
2022/06/13 04:17:40;;;;;;;2.78;2.25;;;;;;;25.26;100.00;-24517.16;5027195;28;20195;-67
2022/06/13 04:20:20;;;;;;;2.83;2.33;;;;;;;25.18;100.00;-24515.09;5029169;28;20183;-66
2022/06/13 04:23:07;;;;;;;3.00;2.38;;;;;;;25.05;100.00;-24511.66;5026691;28;20179;-67
2022/06/13 04:25:47;;;;;;;3.47;2.50;;;;;;;25.39;100.00;-24520.72;5029295;28;20275;-66
2022/06/13 04:28:19;;;;;;;2.85;2.17;;;;;;;24.67;100.00;-24501.03;5026980;28;20226;-63
2022/06/13 04:30:46;;;;;;;3.97;2.65;;;;;;;24.02;100.00;-24483.41;5029743;28;20179;-62
2022/06/13 04:33:26;;;;;;;5.30;2.53;;;;;;;22.72;100.00;-24448.03;5029006;28;20190;-65
2022/06/13 04:35:52;;;;;;;3.03;2.35;;;;;;;22.96;100.00;-24454.41;5027250;28;20665;-67
2022/06/13 04:38:20;;;;;;;3.40;2.40;;;;;;;22.90;100.00;-24453.00;5029151;28;20203;-66
2022/06/13 04:40:50;;;;;;;3.15;2.25;;;;;;;22.38;100.00;-24438.63;5031124;28;20187;-64
2022/06/13 04:43:19;;;;;;;3.88;2.50;;;;;;;22.37;100.00;-24438.34;5032936;28;20658;-67
2022/06/13 04:45:52;;;;;;;3.08;2.10;;;;;;;22.48;100.00;-24441.53;5032641;28;20188;-64
2022/06/13 04:48:19;;;;;;;3.13;2.38;;;;;;;22.81;100.00;-24450.53;5033143;28;20235;-65
2022/06/13 04:50:58;;;;;;;3.22;2.33;;;;;;;23.29;100.00;-24463.66;5034010;28;20187;-64
2022/06/13 04:53:34;;;;;;;3.50;2.22;;;;;;;23.92;100.00;-24480.63;5031721;28;20564;-65
2022/06/13 04:56:00;;;;;;;3.65;2.65;;;;;;;24.16;100.00;-24487.41;5032337;28;20575;-63
2022/06/13 04:58:35;;;;;;;4.07;2.58;;;;;;;24.53;100.00;-24497.47;5032860;28;20215;-67
2022/06/13 05:01:26;;;;;;;3.38;2.30;;;;;;;24.78;100.00;-24504.06;5033858;28;20183;-65
2022/06/13 05:03:54;;;;;;;3.35;2.38;;;;;;;24.76;100.00;-24503.66;5024645;28;20680;-66
2022/06/13 05:06:27;;;;;;;3.17;2.35;;;;;;;25.18;100.00;-24514.94;5033259;28;20233;-64
2022/06/13 05:08:56;;;;;;;2.80;2.10;;;;;;;26.07;100.00;-24539.16;5030114;28;20207;-66
2022/06/13 05:11:28;;;;;;;5.18;2.35;;;;;;;24.82;100.00;-24505.19;5033096;28;20194;-66
2022/06/13 05:14:02;;;;;;;2.58;2.00;;;;;;;24.14;100.00;-24486.84;5033138;28;20179;-66
2022/06/13 05:16:44;;;;;;;3.30;2.25;;;;;;;24.43;100.00;-24494.69;5033899;28;20178;-64
2022/06/13 05:19:25;;;;;;;3.63;2.53;;;;;;;24.79;100.00;-24504.47;5031707;28;20176;-65
2022/06/13 05:22:28;;;;;;;3.78;2.80;;;;;;;25.86;100.00;-24533.66;5030749;28;20203;-64
2022/06/13 05:25:25;;;;;;;4.53;2.78;;;;;;;26.06;100.00;-24539.03;5031371;28;20258;-66
2022/06/13 05:27:53;;;;;;;3.33;2.40;;;;;;;25.61;100.00;-24526.78;5024036;28;20627;-65
2022/06/13 05:30:20;;;;;;;2.97;2.35;;;;;;;25.58;100.00;-24525.81;5031750;28;20262;-64
2022/06/13 05:32:45;;;;;;;3.95;2.60;;;;;;;26.15;100.00;-24541.50;5032556;28;20183;-66
2022/06/13 05:35:19;;;;;;;4.35;3.20;;;;;;;26.10;100.00;-24539.97;5032093;28;20628;-66
2022/06/13 05:37:44;;;;;;;3.10;2.42;;;;;;;26.23;100.00;-24543.56;5031670;28;20214;-66
2022/06/13 05:40:21;;;;;;;3.80;2.70;;;;;;;26.15;100.00;-24541.34;5029925;28;20179;-65
2022/06/13 05:42:48;;;;;;;3.08;2.55;;;;;;;26.13;100.00;-24540.94;5031786;28;20178;-64
2022/06/13 05:45:16;;;;;;;4.13;2.70;;;;;;;25.90;100.00;-24534.75;5031866;28;20198;-66
2022/06/13 05:47:44;;;;;;;4.35;2.88;;;;;;;24.51;100.00;-24496.91;5032289;28;20293;-65
2022/06/13 05:50:24;;;;;;;4.80;2.58;;;;;;;24.14;100.00;-24486.84;5031105;28;20567;-68
2022/06/13 05:52:50;;;;;;;4.50;2.70;;;;;;;24.51;100.00;-24496.78;5032530;28;20283;-64
2022/06/13 05:55:16;;;;;;;4.20;2.85;;;;;;;24.34;100.00;-24492.22;5032081;28;20188;-65
2022/06/13 05:57:42;;;;;;;3.47;2.80;;;;;;;24.20;100.00;-24488.38;5031647;28;20708;-67
2022/06/13 06:00:15;;;;;;;5.45;3.17;;;;;;;24.40;100.00;-24493.88;5031177;28;20218;-65
2022/06/13 06:02:41;;;;;;;4.68;2.55;;;;;;;24.81;100.00;-24504.91;5030836;28;21334;-64
2022/06/13 06:05:07;;;;;;;3.58;2.53;;;;;;;25.00;100.00;-24510.28;5031457;28;20241;-65
2022/06/13 06:07:33;;;;;;;5.30;2.70;;;;;;;24.55;100.00;-24497.88;5032876;28;20190;-64
2022/06/13 06:10:00;;;;;;;4.50;2.78;;;;;;;24.16;100.00;-24487.25;5032651;28;20580;-63
2022/06/13 06:12:25;;;;;;;3.85;2.85;;;;;;;24.05;100.00;-24484.22;5033356;28;20187;-63
2022/06/13 06:14:51;;;;;;;3.85;2.88;;;;;;;24.37;100.00;-24493.03;5032259;28;20639;-65
2022/06/13 06:17:16;;;;;;;4.50;2.85;;;;;;;24.40;100.00;-24493.75;5031354;28;20642;-62
2022/06/13 06:19:42;;;;;;;3.47;2.92;;;;;;;24.26;100.00;-24489.88;5031802;28;20634;-63
2022/06/13 06:22:07;;;;;;;3.03;2.63;;;;;;;24.57;100.00;-24498.56;5031426;28;20184;-63
2022/06/13 06:24:33;;;;;;;3.55;2.85;;;;;;;24.80;100.00;-24504.63;5032621;28;20538;-65
2022/06/13 06:26:58;;;;;;;3.95;2.90;;;;;;;24.61;100.00;-24499.66;5032371;28;20219;-64
2022/06/13 06:29:24;;;;;;;5.13;3.38;;;;;;;24.63;100.00;-24500.06;5031547;28;20579;-65
2022/06/13 06:31:50;;;;;;;3.83;2.50;;;;;;;24.90;100.00;-24507.38;5031706;28;20187;-63
2022/06/13 06:34:15;;;;;;;3.15;2.72;;;;;;;24.72;100.00;-24502.41;5030564;28;20654;-63
2022/06/13 06:36:41;;;;;;;4.28;2.80;;;;;;;24.94;100.00;-24508.47;5032373;28;20206;-65
2022/06/13 06:39:06;;;;;;;3.03;2.58;;;;;;;24.76;100.00;-24503.66;5031179;28;20281;-63
2022/06/13 06:41:32;;;;;;;2.97;2.35;;;;;;;25.16;100.00;-24514.53;5030776;28;20179;-63
2022/06/13 06:43:57;;;;;;;3.47;2.67;;;;;;;25.23;100.00;-24516.34;5031420;28;20183;-65
2022/06/13 06:46:24;;;;;;;3.83;2.90;;;;;;;25.03;100.00;-24510.97;5030992;28;20190;-64
2022/06/13 06:48:51;;;;;;;3.90;2.83;;;;;;;25.25;100.00;-24517.00;5031052;28;20181;-65
2022/06/13 06:51:18;;;;;;;3.95;2.70;;;;;;;25.33;100.00;-24519.09;5031047;28;20175;-62
2022/06/13 07:01:58;;;;;;;3.67;2.78;;;;;;;25.81;100.00;-24532.28;5030369;28;20321;-64
2022/06/13 07:04:23;;;;;;;4.60;2.90;;;;;;;26.06;100.00;-24539.03;5028440;28;20176;-66
2022/06/13 07:06:48;;;;;;;3.97;2.95;;;;;;;26.32;100.00;-24546.16;5030788;28;20555;-63
2022/06/13 07:09:14;;;;;;;4.68;3.08;;;;;;;25.85;100.00;-24533.38;5030157;28;20704;-65
2022/06/13 07:11:55;;;;;;;3.25;2.60;;;;;;;26.01;100.00;-24537.50;5030315;28;20203;-66
2022/06/13 07:14:27;;;;;;;3.95;3.03;;;;;;;25.70;100.00;-24529.25;5029499;28;20598;-66
2022/06/13 07:16:54;;;;;;;3.35;2.65;;;;;;;25.85;100.00;-24533.25;5028797;28;20179;-65
2022/06/13 07:19:19;;;;;;;4.93;3.20;;;;;;;26.05;100.00;-24538.59;5028199;28;20221;-65
2022/06/13 07:21:45;;;;;;;6.13;2.90;;;;;;;26.00;100.00;-24537.38;5030185;28;20211;-64
2022/06/13 07:24:11;;;;;;;4.50;2.80;;;;;;;26.18;100.00;-24542.19;5029248;28;20183;-64
2022/06/13 07:26:38;;;;;;;3.65;2.72;;;;;;;25.98;100.00;-24536.81;5029186;28;20179;-63
2022/06/13 07:29:04;;;;;;;4.80;3.40;;;;;;;26.02;100.00;-24537.78;5027069;28;20187;-63
2022/06/13 07:32:07;;;;;;;3.72;3.00;;;;;;;26.19;100.00;-24542.47;5028694;28;20191;-66
2022/06/13 07:34:34;;;;;;;4.07;2.80;;;;;;;26.12;100.00;-24540.69;5020431;28;20203;-63
2022/06/13 07:37:02;;;;;;;6.03;3.20;;;;;;;26.40;100.00;-24548.09;5029384;28;20228;-62
2022/06/13 07:39:28;;;;;;;4.55;3.03;;;;;;;26.68;100.00;-24555.78;5028724;28;20181;-64
2022/06/13 07:41:54;;;;;;;4.53;2.85;;;;;;;26.56;100.00;-24552.47;5029198;28;20183;-65
2022/06/13 07:44:26;;;;;;;6.07;2.80;;;;;;;26.37;100.00;-24547.41;5028576;28;20661;-63
2022/06/13 07:46:52;;;;;;;6.05;3.22;;;;;;;26.86;99.77;-24560.72;5029462;28;20223;-65
2022/06/13 07:49:19;;;;;;;4.10;2.70;;;;;;;26.76;100.00;-24558.13;5028762;28;20245;-63
2022/06/13 07:51:45;;;;;;;3.97;2.97;;;;;;;27.37;97.32;-24574.44;5029275;28;20241;-64
2022/06/13 07:54:10;;;;;;;3.95;2.83;;;;;;;27.46;94.69;-24576.91;5027851;28;20187;-66
2022/06/13 07:56:38;;;;;;;4.18;3.17;;;;;;;27.62;94.37;-24581.28;5029792;28;20583;-63
2022/06/13 07:59:05;;;;;;;3.20;2.60;;;;;;;27.88;93.58;-24588.28;5029181;28;20293;-63
2022/06/13 08:01:31;;;;;;;3.88;2.80;;;;;;;27.86;94.70;-24587.72;5028932;28;20174;-63
2022/06/13 08:03:57;;;;;;;3.95;2.60;;;;;;;27.94;92.31;-24589.91;5028177;28;20179;-65
2022/06/13 08:06:24;;;;;;;3.25;2.75;;;;;;;28.02;92.84;-24592.13;5028487;28;20181;-64
2022/06/13 08:08:51;;;;;;;4.70;2.78;;;;;;;27.71;93.35;-24583.63;5029249;28;20182;-63
2022/06/13 08:11:39;;;;;;;3.70;2.72;;;;;;;27.92;96.05;-24589.50;5028474;28;20191;-65
2022/06/13 08:14:07;;;;;;;4.15;2.95;;;;;;;28.16;94.43;-24595.81;5026761;28;20175;-65
2022/06/13 08:16:36;;;;;;;3.97;2.80;;;;;;;28.56;94.59;-24606.75;5033020;28;20174;-65
2022/06/13 08:19:03;;;;;;;4.90;2.63;;;;;;;28.65;91.94;-24609.22;5032852;28;20206;-66
2022/06/13 08:21:31;;;;;;;5.90;2.90;;;;;;;28.61;92.96;-24608.13;5032485;28;20183;-63
2022/06/13 08:23:56;;;;;;;3.65;2.83;;;;;;;28.67;92.07;-24609.75;5033144;28;20237;-66
2022/06/13 08:26:22;;;;;;;3.55;2.88;;;;;;;28.72;89.05;-24611.13;5031690;28;20807;-63
2022/06/13 08:28:48;;;;;;;3.45;2.88;;;;;;;28.45;89.24;-24603.75;5033387;28;20190;-66
2022/06/13 08:31:17;;;;;;;3.60;3.05;;;;;;;28.86;89.18;-24614.81;5032399;28;20191;-64
2022/06/13 08:33:43;;;;;;;3.80;2.70;;;;;;;28.49;94.36;-24604.84;5030716;28;20246;-65
2022/06/13 08:36:10;;;;;;;4.53;2.80;;;;;;;28.78;89.73;-24612.78;5031517;28;20198;-66
2022/06/13 08:38:36;;;;;;;3.70;2.75;;;;;;;28.23;91.81;-24597.72;5031860;28;20207;-65
2022/06/13 08:41:10;;;;;;;3.35;2.67;;;;;;;28.26;89.76;-24598.69;5032397;28;20273;-64
2022/06/13 08:43:41;;;;;;;3.65;2.63;;;;;;;28.16;90.71;-24595.81;5032128;28;20178;-65
2022/06/13 08:46:09;;;;;;;3.55;2.72;;;;;;;28.00;90.57;-24591.56;5032549;28;20191;-66
2022/06/13 08:48:39;;;;;;;3.50;2.85;;;;;;;28.09;90.58;-24594.16;5031589;28;20229;-63
2022/06/13 08:51:14;;;;;;;4.55;3.05;;;;;;;28.35;87.80;-24601.00;5028740;28;20187;-65
2022/06/13 08:53:59;;;;;;;5.30;2.92;;;;;;;28.44;90.06;-24603.47;5032383;28;20615;-65
2022/06/13 08:56:29;;;;;;;3.47;2.67;;;;;;;28.65;90.10;-24609.06;5030988;28;20186;-64
2022/06/13 08:59:22;;;;;;;3.58;2.70;;;;;;;28.40;86.72;-24602.50;5032343;28;20669;-63
2022/06/13 09:02:12;;;;;;;3.47;2.88;;;;;;;28.27;83.73;-24598.81;5062536;28;20179;-65
2022/06/13 09:04:55;;;;;;;3.90;3.03;;;;;;;28.42;86.35;-24603.06;5031127;28;20171;-64
2022/06/13 09:07:36;;;;;;;3.72;2.75;;;;;;;29.02;83.01;-24619.06;5031087;28;20217;-63
2022/06/13 09:10:17;;;;;;;3.33;2.85;;;;;;;28.99;78.83;-24618.38;5027768;28;20187;-63
2022/06/13 09:13:05;;;;;;;4.00;3.00;;;;;;;29.10;77.44;-24621.25;5031114;28;20182;-64
2022/06/13 09:15:54;;;;;;;5.13;3.30;;;;;;;29.71;79.07;-24637.91;5031509;28;20171;-64
2022/06/13 09:18:38;;;;;;;5.60;4.07;;;;;;;29.88;79.37;-24642.41;5030460;28;20218;-64
2022/06/13 09:21:15;;;;;;;6.22;3.58;;;;;;;29.68;78.97;-24636.94;5032876;28;20237;-64
2022/06/13 09:23:58;;;;;;;4.35;3.50;;;;;;;29.94;76.46;-24643.91;5031688;28;20210;-65
2022/06/13 09:26:53;;;;;;;6.85;4.82;;;;;;;29.71;78.11;-24637.91;5032016;28;20194;-62
2022/06/13 09:29:41;;;;;;;7.65;4.88;;;;;;;29.88;76.53;-24642.25;5030417;28;20197;-67
2022/06/13 09:32:19;;;;;;;6.80;4.13;;;;;;;29.46;81.10;-24630.94;5032344;28;20671;-65
2022/06/13 09:34:54;;;;;;;8.68;3.97;;;;;;;29.83;75.28;-24641.03;5032573;28;20177;-62
2022/06/13 09:38:13;;;;;;;6.28;3.65;;;;;;;30.41;78.23;-24656.59;5031405;28;20205;-64
2022/06/13 09:40:48;;;;;;;4.78;3.25;;;;;;;30.09;74.79;-24648.13;5011484;28;20187;-66
2022/06/13 09:43:16;;;;;;;6.50;4.13;;;;;;;29.81;74.91;-24640.63;5031936;28;20189;-62
2022/06/13 09:45:52;;;;;;;7.53;4.07;;;;;;;29.64;75.60;-24636.00;5032409;28;20253;-65
2022/06/13 09:48:45;;;;;;;6.57;4.22;;;;;;;29.99;74.09;-24645.28;5032046;28;20245;-65
2022/06/13 09:51:26;;;;;;;5.60;3.88;;;;;;;30.21;74.56;-24651.28;5028759;28;20249;-62
2022/06/13 09:54:10;;;;;;;4.53;3.58;;;;;;;30.26;73.74;-24652.78;5030728;28;20520;-63
2022/06/13 09:57:07;;;;;;;6.70;3.88;;;;;;;30.36;72.51;-24655.22;5031751;28;20178;-64
2022/06/13 09:59:50;;;;;;;5.60;4.20;;;;;;;30.33;76.21;-24654.41;5030366;28;20202;-64
2022/06/13 10:02:28;;;;;;;6.45;4.32;;;;;;;30.45;79.98;-24657.66;5029113;28;20804;-63
2022/06/13 10:04:56;;;;;;;5.88;3.97;;;;;;;30.48;82.36;-24658.63;5030407;28;20584;-63
2022/06/13 10:07:27;;;;;;;5.93;4.10;;;;;;;30.44;80.59;-24657.53;5030485;28;20187;-64
2022/06/13 10:09:59;;;;;;;4.95;3.38;;;;;;;30.01;75.91;-24645.94;5030950;28;20328;-63
2022/06/13 10:12:30;;;;;;;6.85;3.78;;;;;;;30.52;79.36;-24659.59;5030718;28;20182;-64
2022/06/13 10:15:25;;;;;;;5.35;4.00;;;;;;;30.54;73.11;-24660.13;5031953;28;20202;-64
2022/06/13 10:18:22;;;;;;;5.57;3.47;;;;;;;30.06;72.65;-24647.31;5030233;28;20225;-64
2022/06/13 10:21:01;;;;;;;6.78;4.15;;;;;;;29.83;76.07;-24641.19;5029304;28;20599;-63
2022/06/13 10:23:39;;;;;;;7.25;4.50;;;;;;;30.24;77.74;-24652.09;5029608;28;20302;-65
2022/06/13 10:26:39;;;;;;;5.97;3.88;;;;;;;30.81;76.46;-24667.34;5026454;28;20662;-65
2022/06/13 10:29:29;;;;;;;5.82;4.03;;;;;;;31.00;72.70;-24672.53;5026523;28;20194;-63
2022/06/13 10:31:57;;;;;;;7.13;4.32;;;;;;;30.84;69.39;-24668.31;5029223;28;20526;-63
2022/06/13 10:34:52;;;;;;;5.15;3.90;;;;;;;30.70;76.45;-24664.63;5029740;28;20179;-64
2022/06/13 10:37:39;;;;;;;5.90;3.90;;;;;;;30.63;75.03;-24662.72;5040361;28;20663;-61
2022/06/13 10:40:05;;;;;;;5.45;4.07;;;;;;;30.56;76.52;-24660.81;5030282;28;20186;-61
2022/06/13 10:42:34;;;;;;;5.57;4.05;;;;;;;30.48;72.23;-24658.50;5028992;28;20179;-61
2022/06/13 10:45:02;;;;;;;4.78;3.80;;;;;;;30.35;70.22;-24654.94;5029696;28;20557;-62
2022/06/13 10:47:42;;;;;;;5.63;3.75;;;;;;;30.11;73.19;-24648.53;5029223;28;20227;-64
2022/06/13 10:50:40;;;;;;;6.68;4.05;;;;;;;30.18;73.35;-24650.44;5026306;28;20178;-64
2022/06/13 10:53:15;;;;;;;4.90;3.70;;;;;;;29.92;74.03;-24643.50;5026287;28;20193;-64
2022/06/13 10:55:42;;;;;;;6.80;4.13;;;;;;;30.28;86.61;-24653.19;5029352;28;20174;-64
2022/06/13 10:58:21;;;;;;;5.18;3.70;;;;;;;30.44;88.17;-24657.53;5027449;28;20241;-61
2022/06/13 11:01:01;;;;;;;6.25;3.90;;;;;;;30.23;77.12;-24651.94;5023977;28;20257;-66
2022/06/13 11:03:27;;;;;;;6.75;4.45;;;;;;;30.13;80.87;-24649.09;5029034;28;20193;-64
2022/06/13 11:06:00;;;;;;;5.30;4.00;;;;;;;30.45;85.86;-24657.66;5029633;28;20261;-62
2022/06/13 11:08:27;;;;;;;4.90;3.90;;;;;;;30.23;78.31;-24651.94;5027810;28;21046;-64
2022/06/13 11:10:56;;;;;;;6.07;4.22;;;;;;;30.03;71.64;-24646.38;5043026;28;20273;-65
2022/06/13 11:13:32;;;;;;;5.82;4.35;;;;;;;29.69;69.34;-24637.34;5029759;28;20187;-63
2022/06/13 11:22:39;;;;;;;6.70;4.10;;;;;;;30.41;77.82;-24656.59;5027050;28;20217;-63
2022/06/13 11:25:16;;;;;;;5.97;4.45;;;;;;;30.22;76.73;-24651.69;5029274;28;20248;-62
2022/06/13 11:27:45;;;;;;;5.57;4.10;;;;;;;29.25;71.89;-24625.34;5029595;28;20240;-61
2022/06/13 11:30:35;;;;;;;4.95;3.90;;;;;;;30.30;66.46;-24653.72;5027055;28;20598;-61
2022/06/13 11:33:19;;;;;;;6.65;4.40;;;;;;;30.42;65.08;-24656.84;5030526;28;20187;-64
2022/06/13 11:36:01;;;;;;;6.22;4.40;;;;;;;31.10;66.27;-24675.25;5025553;28;20783;-63
2022/06/13 11:38:33;;;;;;;6.20;4.03;;;;;;;31.43;64.01;-24684.09;5030983;28;20261;-64
2022/06/13 11:41:14;;;;;;;5.05;3.88;;;;;;;31.83;62.04;-24694.81;5030414;28;20179;-65
2022/06/13 11:43:42;;;;;;;5.50;3.90;;;;;;;32.10;66.78;-24702.03;5030582;28;20182;-64
2022/06/13 11:46:27;;;;;;;6.57;4.55;;;;;;;32.13;68.10;-24702.84;5031387;28;20251;-64
2022/06/13 11:48:55;;;;;;;6.50;4.35;;;;;;;32.11;71.08;-24702.44;5028348;28;20191;-64
2022/06/13 11:51:34;;;;;;;5.07;4.07;;;;;;;31.82;67.75;-24694.56;5029188;28;20174;-63
2022/06/13 11:53:59;;;;;;;7.25;4.20;;;;;;;31.95;70.58;-24698.22;5028259;28;20174;-63
2022/06/13 11:56:29;;;;;;;6.55;4.15;;;;;;;31.75;71.90;-24692.66;5028341;28;20269;-65
2022/06/13 11:58:59;;;;;;;4.70;3.80;;;;;;;31.91;70.17;-24697.00;5026309;28;20191;-63
2022/06/13 12:01:38;;;;;;;4.95;4.07;;;;;;;31.76;69.07;-24692.94;5028534;28;20193;-66
2022/06/13 12:04:12;;;;;;;5.88;4.35;;;;;;;31.79;74.35;-24693.88;5029653;28;20186;-64
2022/06/13 12:06:40;;;;;;;6.45;4.47;;;;;;;31.65;68.65;-24689.94;5028918;28;20178;-64
2022/06/13 12:09:33;;;;;;;5.85;4.00;;;;;;;32.14;69.40;-24703.13;5029170;28;20207;-65
2022/06/13 12:12:07;;;;;;;5.57;4.10;;;;;;;32.05;69.74;-24700.78;5026530;28;20191;-65